sensor_id;sensor_type;location;lat;lon;timestamp;P1;durP1;ratioP1;P2;durP2;ratioP2
8293;SDS011;4185;41.506;24.938;2024-03-23T00:52:04;11.63;;;6.53;;
8293;SDS011;4185;41.506;24.938;2024-03-23T00:54:30;22.60;;;11.70;;
8293;SDS011;4185;41.506;24.938;2024-03-23T00:56:57;11.27;;;5.83;;
8293;SDS011;4185;41.506;24.938;2024-03-23T00:59:23;15.73;;;8.20;;
8293;SDS011;4185;41.506;24.938;2024-03-23T01:01:52;13.87;;;7.57;;
8293;SDS011;4185;41.506;24.938;2024-03-23T01:04:18;6.43;;;4.33;;
8293;SDS011;4185;41.506;24.938;2024-03-23T01:06:45;6.97;;;4.47;;
8293;SDS011;4185;41.506;24.938;2024-03-23T01:09:12;6.97;;;4.33;;
8293;SDS011;4185;41.506;24.938;2024-03-23T01:11:38;4.77;;;4.20;;
8293;SDS011;4185;41.506;24.938;2024-03-23T01:14:04;8.33;;;4.10;;
8293;SDS011;4185;41.506;24.938;2024-03-23T01:16:31;7.27;;;4.50;;
8293;SDS011;4185;41.506;24.938;2024-03-23T01:18:57;5.93;;;4.73;;
8293;SDS011;4185;41.506;24.938;2024-03-23T01:21:24;6.27;;;4.30;;
8293;SDS011;4185;41.506;24.938;2024-03-23T01:23:49;6.70;;;4.40;;
8293;SDS011;4185;41.506;24.938;2024-03-23T01:26:18;5.83;;;4.30;;
8293;SDS011;4185;41.506;24.938;2024-03-23T01:28:43;6.23;;;4.43;;
8293;SDS011;4185;41.506;24.938;2024-03-23T01:31:10;6.63;;;5.40;;
8293;SDS011;4185;41.506;24.938;2024-03-23T01:33:36;7.07;;;4.70;;
8293;SDS011;4185;41.506;24.938;2024-03-23T01:36:03;4.63;;;4.13;;
8293;SDS011;4185;41.506;24.938;2024-03-23T01:38:29;5.30;;;3.80;;
8293;SDS011;4185;41.506;24.938;2024-03-23T01:40:56;4.97;;;3.83;;
8293;SDS011;4185;41.506;24.938;2024-03-23T01:43:24;4.63;;;3.70;;
8293;SDS011;4185;41.506;24.938;2024-03-23T01:45:51;3.80;;;3.40;;
8293;SDS011;4185;41.506;24.938;2024-03-23T01:48:18;4.50;;;3.53;;
8293;SDS011;4185;41.506;24.938;2024-03-23T01:50:45;5.57;;;4.10;;
8293;SDS011;4185;41.506;24.938;2024-03-23T01:53:11;4.27;;;3.77;;
8293;SDS011;4185;41.506;24.938;2024-03-23T01:55:42;5.07;;;3.77;;
8293;SDS011;4185;41.506;24.938;2024-03-23T01:58:08;6.00;;;3.97;;
8293;SDS011;4185;41.506;24.938;2024-03-23T02:00:36;7.27;;;4.70;;
8293;SDS011;4185;41.506;24.938;2024-03-23T02:03:02;9.00;;;6.10;;
8293;SDS011;4185;41.506;24.938;2024-03-23T02:05:29;10.60;;;6.13;;
8293;SDS011;4185;41.506;24.938;2024-03-23T02:07:55;8.67;;;5.47;;
8293;SDS011;4185;41.506;24.938;2024-03-23T02:10:22;14.63;;;6.90;;
8293;SDS011;4185;41.506;24.938;2024-03-23T02:12:48;16.60;;;7.83;;
8293;SDS011;4185;41.506;24.938;2024-03-23T02:15:15;8.27;;;4.90;;
8293;SDS011;4185;41.506;24.938;2024-03-23T02:17:42;6.80;;;4.47;;
8293;SDS011;4185;41.506;24.938;2024-03-23T02:20:11;8.27;;;5.90;;
8293;SDS011;4185;41.506;24.938;2024-03-23T02:22:37;20.20;;;10.00;;
8293;SDS011;4185;41.506;24.938;2024-03-23T02:25:05;12.63;;;8.03;;
8293;SDS011;4185;41.506;24.938;2024-03-23T02:27:32;9.37;;;6.47;;
8293;SDS011;4185;41.506;24.938;2024-03-23T02:29:59;6.10;;;4.27;;
8293;SDS011;4185;41.506;24.938;2024-03-23T02:32:25;12.43;;;7.47;;
8293;SDS011;4185;41.506;24.938;2024-03-23T02:34:52;23.87;;;13.97;;
8293;SDS011;4185;41.506;24.938;2024-03-23T02:37:18;24.53;;;12.90;;
8293;SDS011;4185;41.506;24.938;2024-03-23T02:39:44;16.07;;;9.57;;
8293;SDS011;4185;41.506;24.938;2024-03-23T02:42:11;12.83;;;8.53;;
8293;SDS011;4185;41.506;24.938;2024-03-23T02:44:38;21.73;;;11.20;;
8293;SDS011;4185;41.506;24.938;2024-03-23T02:47:04;14.83;;;9.47;;
8293;SDS011;4185;41.506;24.938;2024-03-23T02:49:32;14.07;;;8.83;;
8293;SDS011;4185;41.506;24.938;2024-03-23T02:51:57;13.03;;;8.00;;
8293;SDS011;4185;41.506;24.938;2024-03-23T02:54:24;9.37;;;5.33;;
8293;SDS011;4185;41.506;24.938;2024-03-23T02:56:50;8.70;;;6.00;;
8293;SDS011;4185;41.506;24.938;2024-03-23T02:59:18;8.77;;;5.43;;
8293;SDS011;4185;41.506;24.938;2024-03-23T03:01:44;13.83;;;6.80;;
8293;SDS011;4185;41.506;24.938;2024-03-23T03:04:10;12.03;;;6.67;;
8293;SDS011;4185;41.506;24.938;2024-03-23T03:06:36;7.93;;;4.90;;
8293;SDS011;4185;41.506;24.938;2024-03-23T03:09:03;9.43;;;5.40;;
8293;SDS011;4185;41.506;24.938;2024-03-23T03:11:29;8.83;;;4.10;;
8293;SDS011;4185;41.506;24.938;2024-03-23T03:13:56;10.00;;;5.77;;
8293;SDS011;4185;41.506;24.938;2024-03-23T03:16:26;18.00;;;8.40;;
8293;SDS011;4185;41.506;24.938;2024-03-23T03:18:53;13.33;;;8.60;;
8293;SDS011;4185;41.506;24.938;2024-03-23T03:21:19;13.90;;;6.97;;
8293;SDS011;4185;41.506;24.938;2024-03-23T03:23:45;5.20;;;3.70;;
8293;SDS011;4185;41.506;24.938;2024-03-23T03:26:12;10.47;;;6.87;;
8293;SDS011;4185;41.506;24.938;2024-03-23T03:28:39;13.07;;;7.90;;
8293;SDS011;4185;41.506;24.938;2024-03-23T03:31:05;10.20;;;6.17;;
8293;SDS011;4185;41.506;24.938;2024-03-23T03:33:33;8.77;;;5.77;;
8293;SDS011;4185;41.506;24.938;2024-03-23T03:35:59;9.83;;;6.10;;
8293;SDS011;4185;41.506;24.938;2024-03-23T03:38:25;7.97;;;5.70;;
8293;SDS011;4185;41.506;24.938;2024-03-23T03:40:51;6.90;;;5.23;;
8293;SDS011;4185;41.506;24.938;2024-03-23T03:43:18;8.73;;;5.27;;
8293;SDS011;4185;41.506;24.938;2024-03-23T03:45:50;6.80;;;5.50;;
8293;SDS011;4185;41.506;24.938;2024-03-23T03:48:18;7.67;;;5.07;;
8293;SDS011;4185;41.506;24.938;2024-03-23T03:50:45;7.13;;;6.00;;
8293;SDS011;4185;41.506;24.938;2024-03-23T03:53:11;13.50;;;8.20;;
8293;SDS011;4185;41.506;24.938;2024-03-23T03:55:37;13.10;;;8.00;;
8293;SDS011;4185;41.506;24.938;2024-03-23T03:58:04;12.57;;;7.60;;
8293;SDS011;4185;41.506;24.938;2024-03-23T04:00:30;7.40;;;4.90;;
8293;SDS011;4185;41.506;24.938;2024-03-23T04:02:57;7.13;;;5.10;;
8293;SDS011;4185;41.506;24.938;2024-03-23T04:05:22;8.40;;;5.37;;
8293;SDS011;4185;41.506;24.938;2024-03-23T04:07:50;7.33;;;5.20;;
8293;SDS011;4185;41.506;24.938;2024-03-23T04:10:16;9.63;;;5.83;;
8293;SDS011;4185;41.506;24.938;2024-03-23T04:12:43;9.40;;;5.30;;
8293;SDS011;4185;41.506;24.938;2024-03-23T04:15:09;9.80;;;6.10;;
8293;SDS011;4185;41.506;24.938;2024-03-23T04:17:36;10.30;;;5.93;;
8293;SDS011;4185;41.506;24.938;2024-03-23T04:20:02;9.03;;;5.40;;
8293;SDS011;4185;41.506;24.938;2024-03-23T04:22:34;8.30;;;5.43;;
8293;SDS011;4185;41.506;24.938;2024-03-23T04:25:01;10.40;;;6.17;;
8293;SDS011;4185;41.506;24.938;2024-03-23T04:27:31;7.40;;;5.10;;
8293;SDS011;4185;41.506;24.938;2024-03-23T04:29:57;8.70;;;5.80;;
8293;SDS011;4185;41.506;24.938;2024-03-23T04:32:26;13.67;;;6.57;;
8293;SDS011;4185;41.506;24.938;2024-03-23T04:34:52;7.80;;;5.73;;
8293;SDS011;4185;41.506;24.938;2024-03-23T04:37:18;13.03;;;6.77;;
8293;SDS011;4185;41.506;24.938;2024-03-23T04:39:45;12.03;;;6.90;;
8293;SDS011;4185;41.506;24.938;2024-03-23T04:42:14;15.63;;;8.63;;
8293;SDS011;4185;41.506;24.938;2024-03-23T04:44:41;9.00;;;6.17;;
8293;SDS011;4185;41.506;24.938;2024-03-23T04:47:08;8.63;;;4.97;;
8293;SDS011;4185;41.506;24.938;2024-03-23T04:49:35;9.57;;;6.07;;
8293;SDS011;4185;41.506;24.938;2024-03-23T04:52:02;9.17;;;6.27;;
8293;SDS011;4185;41.506;24.938;2024-03-23T04:54:29;8.90;;;5.23;;
8293;SDS011;4185;41.506;24.938;2024-03-23T04:56:57;10.27;;;5.67;;
8293;SDS011;4185;41.506;24.938;2024-03-23T04:59:26;8.33;;;5.40;;
8293;SDS011;4185;41.506;24.938;2024-03-23T05:01:51;6.27;;;4.70;;
8293;SDS011;4185;41.506;24.938;2024-03-23T05:04:18;5.83;;;4.80;;
8293;SDS011;4185;41.506;24.938;2024-03-23T05:06:44;5.53;;;4.50;;
8293;SDS011;4185;41.506;24.938;2024-03-23T05:09:11;7.00;;;4.83;;
8293;SDS011;4185;41.506;24.938;2024-03-23T05:11:36;8.13;;;4.73;;
8293;SDS011;4185;41.506;24.938;2024-03-23T05:14:03;6.27;;;5.27;;
8293;SDS011;4185;41.506;24.938;2024-03-23T05:16:30;9.10;;;5.33;;
8293;SDS011;4185;41.506;24.938;2024-03-23T05:18:57;11.23;;;6.60;;
8293;SDS011;4185;41.506;24.938;2024-03-23T05:21:23;15.33;;;8.43;;
8293;SDS011;4185;41.506;24.938;2024-03-23T05:23:50;13.83;;;7.67;;
8293;SDS011;4185;41.506;24.938;2024-03-23T05:26:16;12.00;;;7.80;;
8293;SDS011;4185;41.506;24.938;2024-03-23T05:28:43;11.53;;;7.33;;
8293;SDS011;4185;41.506;24.938;2024-03-23T05:31:09;325.43;;;94.20;;
8293;SDS011;4185;41.506;24.938;2024-03-23T05:33:37;441.93;;;137.40;;
8293;SDS011;4185;41.506;24.938;2024-03-23T05:36:03;57.10;;;32.23;;
8293;SDS011;4185;41.506;24.938;2024-03-23T05:38:31;32.03;;;19.03;;
8293;SDS011;4185;41.506;24.938;2024-03-23T05:40:56;41.53;;;20.67;;
8293;SDS011;4185;41.506;24.938;2024-03-23T05:43:24;25.00;;;14.30;;
8293;SDS011;4185;41.506;24.938;2024-03-23T05:45:53;25.90;;;12.93;;
8293;SDS011;4185;41.506;24.938;2024-03-23T05:48:20;15.63;;;9.77;;
8293;SDS011;4185;41.506;24.938;2024-03-23T05:50:47;21.47;;;12.73;;
8293;SDS011;4185;41.506;24.938;2024-03-23T05:53:14;19.00;;;12.03;;
8293;SDS011;4185;41.506;24.938;2024-03-23T05:55:40;10.37;;;6.70;;
8293;SDS011;4185;41.506;24.938;2024-03-23T05:58:07;13.90;;;8.10;;
8293;SDS011;4185;41.506;24.938;2024-03-23T06:00:34;66.60;;;37.57;;
8293;SDS011;4185;41.506;24.938;2024-03-23T06:03:00;55.17;;;37.87;;
8293;SDS011;4185;41.506;24.938;2024-03-23T06:05:26;7.53;;;6.73;;
8293;SDS011;4185;41.506;24.938;2024-03-23T06:07:54;8.77;;;6.20;;
8293;SDS011;4185;41.506;24.938;2024-03-23T06:10:20;10.67;;;8.93;;
8293;SDS011;4185;41.506;24.938;2024-03-23T06:12:46;6.10;;;4.73;;
8293;SDS011;4185;41.506;24.938;2024-03-23T06:15:14;5.43;;;4.70;;
8293;SDS011;4185;41.506;24.938;2024-03-23T06:17:40;8.13;;;5.93;;
8293;SDS011;4185;41.506;24.938;2024-03-23T06:20:07;9.10;;;6.37;;
8293;SDS011;4185;41.506;24.938;2024-03-23T06:22:33;8.57;;;5.70;;
8293;SDS011;4185;41.506;24.938;2024-03-23T06:25:01;7.37;;;5.37;;
8293;SDS011;4185;41.506;24.938;2024-03-23T06:27:27;13.93;;;8.97;;
8293;SDS011;4185;41.506;24.938;2024-03-23T06:29:54;9.27;;;7.63;;
8293;SDS011;4185;41.506;24.938;2024-03-23T06:32:20;12.97;;;7.70;;
8293;SDS011;4185;41.506;24.938;2024-03-23T06:34:47;8.73;;;6.33;;
8293;SDS011;4185;41.506;24.938;2024-03-23T06:37:12;14.70;;;10.10;;
8293;SDS011;4185;41.506;24.938;2024-03-23T06:39:39;15.53;;;9.83;;
8293;SDS011;4185;41.506;24.938;2024-03-23T06:42:06;12.17;;;8.30;;
8293;SDS011;4185;41.506;24.938;2024-03-23T06:44:33;10.20;;;7.37;;
8293;SDS011;4185;41.506;24.938;2024-03-23T06:46:59;11.60;;;7.80;;
8293;SDS011;4185;41.506;24.938;2024-03-23T06:49:27;8.80;;;7.17;;
8293;SDS011;4185;41.506;24.938;2024-03-23T06:51:53;10.03;;;6.73;;
8293;SDS011;4185;41.506;24.938;2024-03-23T06:54:20;10.03;;;6.87;;
8293;SDS011;4185;41.506;24.938;2024-03-23T06:56:46;8.90;;;6.83;;
8293;SDS011;4185;41.506;24.938;2024-03-23T06:59:14;7.70;;;6.07;;
8293;SDS011;4185;41.506;24.938;2024-03-23T07:01:40;9.93;;;5.70;;
8293;SDS011;4185;41.506;24.938;2024-03-23T07:04:07;10.53;;;7.23;;
8293;SDS011;4185;41.506;24.938;2024-03-23T07:06:33;12.87;;;8.83;;
8293;SDS011;4185;41.506;24.938;2024-03-23T07:09:00;12.43;;;7.20;;
8293;SDS011;4185;41.506;24.938;2024-03-23T07:11:25;11.33;;;5.77;;
8293;SDS011;4185;41.506;24.938;2024-03-23T07:13:53;9.23;;;5.67;;
8293;SDS011;4185;41.506;24.938;2024-03-23T07:16:21;6.20;;;4.83;;
8293;SDS011;4185;41.506;24.938;2024-03-23T07:18:49;6.43;;;4.73;;
8293;SDS011;4185;41.506;24.938;2024-03-23T07:21:15;5.93;;;4.50;;
8293;SDS011;4185;41.506;24.938;2024-03-23T07:23:42;15.80;;;9.93;;
8293;SDS011;4185;41.506;24.938;2024-03-23T07:26:10;7.80;;;5.37;;
8293;SDS011;4185;41.506;24.938;2024-03-23T07:28:37;8.33;;;6.53;;
8293;SDS011;4185;41.506;24.938;2024-03-23T07:31:08;7.97;;;5.47;;
8293;SDS011;4185;41.506;24.938;2024-03-23T07:33:40;6.77;;;4.87;;
8293;SDS011;4185;41.506;24.938;2024-03-23T07:36:07;8.10;;;5.50;;
8293;SDS011;4185;41.506;24.938;2024-03-23T07:38:34;5.77;;;4.40;;
8293;SDS011;4185;41.506;24.938;2024-03-23T07:41:03;7.77;;;5.67;;
8293;SDS011;4185;41.506;24.938;2024-03-23T07:43:31;7.77;;;5.23;;
8293;SDS011;4185;41.506;24.938;2024-03-23T07:45:57;8.00;;;4.90;;
8293;SDS011;4185;41.506;24.938;2024-03-23T07:48:24;4.97;;;4.00;;
8293;SDS011;4185;41.506;24.938;2024-03-23T07:50:58;6.70;;;4.43;;
8293;SDS011;4185;41.506;24.938;2024-03-23T07:53:26;6.73;;;4.70;;
8293;SDS011;4185;41.506;24.938;2024-03-23T07:55:53;6.33;;;4.00;;
8293;SDS011;4185;41.506;24.938;2024-03-23T07:58:21;5.57;;;4.10;;
8293;SDS011;4185;41.506;24.938;2024-03-23T08:00:47;5.73;;;4.77;;
8293;SDS011;4185;41.506;24.938;2024-03-23T08:03:13;5.43;;;4.43;;
8293;SDS011;4185;41.506;24.938;2024-03-23T08:05:40;4.67;;;4.20;;
8293;SDS011;4185;41.506;24.938;2024-03-23T08:08:08;5.57;;;4.20;;
8293;SDS011;4185;41.506;24.938;2024-03-23T08:10:33;6.47;;;4.10;;
8293;SDS011;4185;41.506;24.938;2024-03-23T08:13:00;4.83;;;3.80;;
8293;SDS011;4185;41.506;24.938;2024-03-23T08:15:26;4.10;;;3.20;;
8293;SDS011;4185;41.506;24.938;2024-03-23T08:17:53;3.67;;;2.90;;
8293;SDS011;4185;41.506;24.938;2024-03-23T08:20:18;4.57;;;3.70;;
8293;SDS011;4185;41.506;24.938;2024-03-23T08:22:45;3.53;;;2.97;;
8293;SDS011;4185;41.506;24.938;2024-03-23T08:25:12;3.50;;;2.83;;
8293;SDS011;4185;41.506;24.938;2024-03-23T08:27:39;3.93;;;2.97;;
8293;SDS011;4185;41.506;24.938;2024-03-23T08:30:05;4.77;;;3.50;;
8293;SDS011;4185;41.506;24.938;2024-03-23T08:32:33;6.73;;;3.60;;
8293;SDS011;4185;41.506;24.938;2024-03-23T08:34:58;3.37;;;2.83;;
8293;SDS011;4185;41.506;24.938;2024-03-23T08:37:25;3.03;;;2.40;;
8293;SDS011;4185;41.506;24.938;2024-03-23T08:39:52;2.70;;;2.50;;
8293;SDS011;4185;41.506;24.938;2024-03-23T08:42:20;2.63;;;2.30;;
8293;SDS011;4185;41.506;24.938;2024-03-23T08:44:46;2.80;;;2.60;;
8293;SDS011;4185;41.506;24.938;2024-03-23T08:47:14;3.10;;;2.70;;
8293;SDS011;4185;41.506;24.938;2024-03-23T08:49:40;3.53;;;3.20;;
8293;SDS011;4185;41.506;24.938;2024-03-23T08:52:07;3.77;;;2.70;;
8293;SDS011;4185;41.506;24.938;2024-03-23T08:54:33;3.93;;;2.83;;
8293;SDS011;4185;41.506;24.938;2024-03-23T08:56:59;4.60;;;3.67;;
8293;SDS011;4185;41.506;24.938;2024-03-23T08:59:27;5.50;;;4.20;;
8293;SDS011;4185;41.506;24.938;2024-03-23T09:01:53;2.97;;;2.23;;
8293;SDS011;4185;41.506;24.938;2024-03-23T09:04:19;2.53;;;2.33;;
8293;SDS011;4185;41.506;24.938;2024-03-23T09:06:46;2.47;;;2.27;;
8293;SDS011;4185;41.506;24.938;2024-03-23T09:09:12;4.00;;;2.37;;
8293;SDS011;4185;41.506;24.938;2024-03-23T09:11:39;4.40;;;2.60;;
8293;SDS011;4185;41.506;24.938;2024-03-23T09:14:05;3.83;;;2.70;;
8293;SDS011;4185;41.506;24.938;2024-03-23T09:16:33;3.47;;;3.03;;
8293;SDS011;4185;41.506;24.938;2024-03-23T09:18:58;3.20;;;2.90;;
8293;SDS011;4185;41.506;24.938;2024-03-23T09:21:25;3.50;;;2.80;;
8293;SDS011;4185;41.506;24.938;2024-03-23T09:23:51;5.10;;;3.37;;
8293;SDS011;4185;41.506;24.938;2024-03-23T09:26:18;4.87;;;3.00;;
8293;SDS011;4185;41.506;24.938;2024-03-23T09:28:43;2.80;;;2.23;;
8293;SDS011;4185;41.506;24.938;2024-03-23T09:31:10;4.30;;;2.70;;
8293;SDS011;4185;41.506;24.938;2024-03-23T09:33:40;3.87;;;2.57;;
8293;SDS011;4185;41.506;24.938;2024-03-23T09:36:07;2.43;;;2.23;;
8293;SDS011;4185;41.506;24.938;2024-03-23T09:38:35;2.53;;;2.30;;
8293;SDS011;4185;41.506;24.938;2024-03-23T09:41:06;4.73;;;3.33;;
8293;SDS011;4185;41.506;24.938;2024-03-23T09:43:32;3.50;;;2.77;;
8293;SDS011;4185;41.506;24.938;2024-03-23T09:45:59;2.77;;;2.30;;
8293;SDS011;4185;41.506;24.938;2024-03-23T09:48:26;3.27;;;2.60;;
8293;SDS011;4185;41.506;24.938;2024-03-23T09:50:55;3.77;;;2.93;;
8293;SDS011;4185;41.506;24.938;2024-03-23T09:53:21;2.67;;;2.40;;
8293;SDS011;4185;41.506;24.938;2024-03-23T09:55:48;4.00;;;2.90;;
8293;SDS011;4185;41.506;24.938;2024-03-23T09:58:17;3.03;;;2.73;;
8293;SDS011;4185;41.506;24.938;2024-03-23T10:00:44;2.70;;;2.50;;
8293;SDS011;4185;41.506;24.938;2024-03-23T10:03:10;3.03;;;2.23;;
8293;SDS011;4185;41.506;24.938;2024-03-23T10:05:38;2.63;;;2.33;;
8293;SDS011;4185;41.506;24.938;2024-03-23T10:08:16;3.30;;;3.00;;
8293;SDS011;4185;41.506;24.938;2024-03-23T10:10:45;3.33;;;2.90;;
8293;SDS011;4185;41.506;24.938;2024-03-23T10:13:11;3.30;;;2.97;;
8293;SDS011;4185;41.506;24.938;2024-03-23T10:15:54;4.20;;;2.63;;
8293;SDS011;4185;41.506;24.938;2024-03-23T10:18:21;2.50;;;2.30;;
8293;SDS011;4185;41.506;24.938;2024-03-23T10:20:51;2.70;;;2.50;;
8293;SDS011;4185;41.506;24.938;2024-03-23T10:23:32;3.03;;;2.47;;
8293;SDS011;4185;41.506;24.938;2024-03-23T10:26:06;3.97;;;2.73;;
8293;SDS011;4185;41.506;24.938;2024-03-23T10:28:37;5.90;;;2.70;;
8293;SDS011;4185;41.506;24.938;2024-03-23T10:31:22;3.47;;;2.53;;
8293;SDS011;4185;41.506;24.938;2024-03-23T10:33:48;3.43;;;2.47;;
8293;SDS011;4185;41.506;24.938;2024-03-23T10:36:15;2.90;;;2.60;;
8293;SDS011;4185;41.506;24.938;2024-03-23T10:38:42;3.43;;;2.47;;
8293;SDS011;4185;41.506;24.938;2024-03-23T10:41:10;3.53;;;2.53;;
8293;SDS011;4185;41.506;24.938;2024-03-23T10:43:36;3.00;;;2.23;;
8293;SDS011;4185;41.506;24.938;2024-03-23T10:46:03;3.77;;;2.60;;
8293;SDS011;4185;41.506;24.938;2024-03-23T10:48:30;4.13;;;2.70;;
8293;SDS011;4185;41.506;24.938;2024-03-23T10:50:57;2.57;;;2.20;;
8293;SDS011;4185;41.506;24.938;2024-03-23T10:53:25;2.70;;;2.50;;
8293;SDS011;4185;41.506;24.938;2024-03-23T10:55:54;2.90;;;2.60;;
8293;SDS011;4185;41.506;24.938;2024-03-23T10:58:21;4.03;;;2.43;;
8293;SDS011;4185;41.506;24.938;2024-03-23T11:00:52;3.77;;;2.80;;
8293;SDS011;4185;41.506;24.938;2024-03-23T11:03:32;2.60;;;2.40;;
8293;SDS011;4185;41.506;24.938;2024-03-23T11:06:00;3.30;;;2.40;;
8293;SDS011;4185;41.506;24.938;2024-03-23T11:08:32;4.13;;;2.80;;
8293;SDS011;4185;41.506;24.938;2024-03-23T11:11:20;2.80;;;2.43;;
8293;SDS011;4185;41.506;24.938;2024-03-23T11:13:48;2.40;;;2.20;;
8293;SDS011;4185;41.506;24.938;2024-03-23T11:16:15;2.70;;;2.43;;
8293;SDS011;4185;41.506;24.938;2024-03-23T11:18:42;4.07;;;2.80;;
8293;SDS011;4185;41.506;24.938;2024-03-23T11:21:10;3.83;;;3.03;;
8293;SDS011;4185;41.506;24.938;2024-03-23T11:23:36;3.10;;;2.77;;
8293;SDS011;4185;41.506;24.938;2024-03-23T11:26:06;3.40;;;2.80;;
8293;SDS011;4185;41.506;24.938;2024-03-23T11:28:34;3.20;;;2.60;;
8293;SDS011;4185;41.506;24.938;2024-03-23T11:31:01;3.20;;;2.90;;
8293;SDS011;4185;41.506;24.938;2024-03-23T11:33:34;3.90;;;2.97;;
8293;SDS011;4185;41.506;24.938;2024-03-23T11:36:01;3.23;;;2.90;;
8293;SDS011;4185;41.506;24.938;2024-03-23T11:38:26;3.93;;;3.03;;
8293;SDS011;4185;41.506;24.938;2024-03-23T11:40:53;3.10;;;2.80;;
8293;SDS011;4185;41.506;24.938;2024-03-23T11:43:19;3.00;;;2.70;;
8293;SDS011;4185;41.506;24.938;2024-03-23T11:45:49;3.10;;;2.80;;
8293;SDS011;4185;41.506;24.938;2024-03-23T11:48:17;4.07;;;2.77;;
8293;SDS011;4185;41.506;24.938;2024-03-23T11:50:46;4.73;;;3.70;;
8293;SDS011;4185;41.506;24.938;2024-03-23T11:53:14;3.37;;;2.40;;
8293;SDS011;4185;41.506;24.938;2024-03-23T11:55:42;2.53;;;2.33;;
8293;SDS011;4185;41.506;24.938;2024-03-23T11:58:09;5.33;;;3.00;;
8293;SDS011;4185;41.506;24.938;2024-03-23T12:00:37;4.97;;;2.97;;
8293;SDS011;4185;41.506;24.938;2024-03-23T12:03:04;5.47;;;3.00;;
8293;SDS011;4185;41.506;24.938;2024-03-23T12:05:31;2.93;;;2.47;;
8293;SDS011;4185;41.506;24.938;2024-03-23T12:08:20;2.70;;;2.50;;
8293;SDS011;4185;41.506;24.938;2024-03-23T12:10:49;5.07;;;3.83;;
8293;SDS011;4185;41.506;24.938;2024-03-23T12:13:17;5.47;;;2.67;;
8293;SDS011;4185;41.506;24.938;2024-03-23T12:15:45;3.20;;;2.80;;
8293;SDS011;4185;41.506;24.938;2024-03-23T12:18:13;3.90;;;3.00;;
8293;SDS011;4185;41.506;24.938;2024-03-23T12:20:40;3.47;;;2.73;;
8293;SDS011;4185;41.506;24.938;2024-03-23T12:23:06;3.77;;;2.67;;
8293;SDS011;4185;41.506;24.938;2024-03-23T12:25:34;4.67;;;3.00;;
8293;SDS011;4185;41.506;24.938;2024-03-23T12:28:01;2.77;;;2.30;;
8293;SDS011;4185;41.506;24.938;2024-03-23T12:30:28;4.67;;;2.53;;
8293;SDS011;4185;41.506;24.938;2024-03-23T12:32:54;3.00;;;2.20;;
8293;SDS011;4185;41.506;24.938;2024-03-23T12:35:23;4.43;;;3.00;;
8293;SDS011;4185;41.506;24.938;2024-03-23T12:37:49;5.47;;;3.20;;
8293;SDS011;4185;41.506;24.938;2024-03-23T12:40:15;4.00;;;2.97;;
8293;SDS011;4185;41.506;24.938;2024-03-23T12:42:41;5.70;;;3.10;;
8293;SDS011;4185;41.506;24.938;2024-03-23T12:45:08;3.97;;;3.20;;
8293;SDS011;4185;41.506;24.938;2024-03-23T12:47:34;4.43;;;3.10;;
8293;SDS011;4185;41.506;24.938;2024-03-23T12:50:01;2.90;;;2.60;;
8293;SDS011;4185;41.506;24.938;2024-03-23T12:52:28;3.33;;;2.67;;
8293;SDS011;4185;41.506;24.938;2024-03-23T12:54:55;4.83;;;2.70;;
8293;SDS011;4185;41.506;24.938;2024-03-23T12:57:21;3.60;;;2.63;;
8293;SDS011;4185;41.506;24.938;2024-03-23T12:59:49;4.50;;;3.30;;
8293;SDS011;4185;41.506;24.938;2024-03-23T13:02:16;3.30;;;2.77;;
8293;SDS011;4185;41.506;24.938;2024-03-23T13:04:45;3.50;;;2.80;;
8293;SDS011;4185;41.506;24.938;2024-03-23T13:07:11;3.40;;;3.00;;
8293;SDS011;4185;41.506;24.938;2024-03-23T13:09:40;4.13;;;2.80;;
8293;SDS011;4185;41.506;24.938;2024-03-23T13:12:06;3.17;;;2.80;;
8293;SDS011;4185;41.506;24.938;2024-03-23T13:14:33;4.20;;;3.30;;
8293;SDS011;4185;41.506;24.938;2024-03-23T13:16:59;3.80;;;2.80;;
8293;SDS011;4185;41.506;24.938;2024-03-23T13:19:27;4.10;;;3.47;;
8293;SDS011;4185;41.506;24.938;2024-03-23T13:21:55;3.87;;;3.23;;
8293;SDS011;4185;41.506;24.938;2024-03-23T13:24:22;3.63;;;3.30;;
8293;SDS011;4185;41.506;24.938;2024-03-23T13:26:50;5.27;;;2.73;;
8293;SDS011;4185;41.506;24.938;2024-03-23T13:29:18;3.40;;;3.00;;
8293;SDS011;4185;41.506;24.938;2024-03-23T13:31:44;4.83;;;3.00;;
8293;SDS011;4185;41.506;24.938;2024-03-23T13:34:11;5.13;;;3.90;;
8293;SDS011;4185;41.506;24.938;2024-03-23T13:36:38;4.73;;;3.60;;
8293;SDS011;4185;41.506;24.938;2024-03-23T13:39:05;4.47;;;3.40;;
8293;SDS011;4185;41.506;24.938;2024-03-23T13:41:35;4.70;;;3.80;;
8293;SDS011;4185;41.506;24.938;2024-03-23T13:44:05;4.23;;;3.20;;
8293;SDS011;4185;41.506;24.938;2024-03-23T13:46:31;3.80;;;3.37;;
8293;SDS011;4185;41.506;24.938;2024-03-23T13:48:57;5.23;;;3.53;;
8293;SDS011;4185;41.506;24.938;2024-03-23T13:51:24;5.97;;;3.93;;
8293;SDS011;4185;41.506;24.938;2024-03-23T13:53:52;6.07;;;4.13;;
8293;SDS011;4185;41.506;24.938;2024-03-23T13:56:19;4.90;;;3.80;;
8293;SDS011;4185;41.506;24.938;2024-03-23T13:58:45;7.17;;;3.30;;
8293;SDS011;4185;41.506;24.938;2024-03-23T14:01:14;7.17;;;4.43;;
8293;SDS011;4185;41.506;24.938;2024-03-23T14:03:40;5.03;;;3.73;;
8293;SDS011;4185;41.506;24.938;2024-03-23T14:06:07;6.00;;;4.00;;
8293;SDS011;4185;41.506;24.938;2024-03-23T14:08:34;4.77;;;3.80;;
8293;SDS011;4185;41.506;24.938;2024-03-23T14:11:04;5.43;;;3.93;;
8293;SDS011;4185;41.506;24.938;2024-03-23T14:13:30;5.80;;;5.03;;
8293;SDS011;4185;41.506;24.938;2024-03-23T14:15:57;5.97;;;4.37;;
8293;SDS011;4185;41.506;24.938;2024-03-23T14:18:25;6.50;;;4.87;;
8293;SDS011;4185;41.506;24.938;2024-03-23T14:20:52;7.47;;;4.80;;
8293;SDS011;4185;41.506;24.938;2024-03-23T14:23:23;6.67;;;5.23;;
8293;SDS011;4185;41.506;24.938;2024-03-23T14:25:52;5.23;;;4.73;;
8293;SDS011;4185;41.506;24.938;2024-03-23T14:28:18;5.40;;;4.70;;
8293;SDS011;4185;41.506;24.938;2024-03-23T14:30:45;4.97;;;4.30;;
8293;SDS011;4185;41.506;24.938;2024-03-23T14:33:11;6.87;;;5.07;;
8293;SDS011;4185;41.506;24.938;2024-03-23T14:35:39;8.03;;;5.77;;
8293;SDS011;4185;41.506;24.938;2024-03-23T14:38:05;5.77;;;4.90;;
8293;SDS011;4185;41.506;24.938;2024-03-23T14:40:31;6.67;;;4.90;;
8293;SDS011;4185;41.506;24.938;2024-03-23T14:42:57;8.67;;;5.77;;
8293;SDS011;4185;41.506;24.938;2024-03-23T14:45:24;7.17;;;6.47;;
8293;SDS011;4185;41.506;24.938;2024-03-23T14:47:50;7.23;;;5.07;;
8293;SDS011;4185;41.506;24.938;2024-03-23T14:50:16;6.20;;;4.73;;
8293;SDS011;4185;41.506;24.938;2024-03-23T14:52:45;5.90;;;4.73;;
8293;SDS011;4185;41.506;24.938;2024-03-23T14:55:12;7.07;;;5.07;;
8293;SDS011;4185;41.506;24.938;2024-03-23T14:57:37;7.50;;;5.20;;
8293;SDS011;4185;41.506;24.938;2024-03-23T15:00:06;5.27;;;4.77;;
8293;SDS011;4185;41.506;24.938;2024-03-23T15:02:33;5.80;;;5.10;;
8293;SDS011;4185;41.506;24.938;2024-03-23T15:05:00;6.67;;;4.77;;
8293;SDS011;4185;41.506;24.938;2024-03-23T15:07:25;6.70;;;4.97;;
8293;SDS011;4185;41.506;24.938;2024-03-23T15:09:54;6.80;;;4.83;;
8293;SDS011;4185;41.506;24.938;2024-03-23T15:12:20;5.80;;;4.77;;
8293;SDS011;4185;41.506;24.938;2024-03-23T15:14:47;5.00;;;4.50;;
8293;SDS011;4185;41.506;24.938;2024-03-23T15:17:13;4.17;;;3.77;;
8293;SDS011;4185;41.506;24.938;2024-03-23T15:19:40;6.23;;;5.50;;
8293;SDS011;4185;41.506;24.938;2024-03-23T15:22:07;5.17;;;4.53;;
8293;SDS011;4185;41.506;24.938;2024-03-23T15:24:35;7.53;;;5.33;;
8293;SDS011;4185;41.506;24.938;2024-03-23T15:27:02;6.00;;;5.40;;
8293;SDS011;4185;41.506;24.938;2024-03-23T15:29:29;12.13;;;8.23;;
8293;SDS011;4185;41.506;24.938;2024-03-23T15:31:56;7.70;;;6.03;;
8293;SDS011;4185;41.506;24.938;2024-03-23T15:34:23;9.50;;;7.50;;
8293;SDS011;4185;41.506;24.938;2024-03-23T15:36:49;13.77;;;8.77;;
8293;SDS011;4185;41.506;24.938;2024-03-23T15:39:16;11.77;;;8.63;;
8293;SDS011;4185;41.506;24.938;2024-03-23T15:41:43;6.93;;;5.43;;
8293;SDS011;4185;41.506;24.938;2024-03-23T15:44:12;6.63;;;5.60;;
8293;SDS011;4185;41.506;24.938;2024-03-23T15:46:38;14.80;;;11.30;;
8293;SDS011;4185;41.506;24.938;2024-03-23T15:49:05;15.40;;;12.13;;